Time;durP1;ratioP1;P1;durP2;ratioP2;P2;SDS_P1;SDS_P2;PMS_P1;PMS_P2;Temp;Humidity;BMP_temperature;BMP_pressure;BME280_temperature;BME280_humidity;BME280_pressure;Samples;Min_cycle;Max_cycle;Signal;HPM_P1;HPM_P2
2020/12/14 00:00:25;;;;;;;66.97;27.30;;;4.90;99.90;;;;;;5087563;28;20217;-81
2020/12/14 00:02:52;;;;;;;66.27;29.40;;;4.80;99.90;;;;;;5090860;28;20201;-80
2020/12/14 00:05:18;;;;;;;59.73;26.17;;;4.90;99.90;;;;;;5105808;28;20299;-80
2020/12/14 00:07:45;;;;;;;65.67;28.13;;;4.90;99.90;;;;;;5094738;28;20302;-81
2020/12/14 00:10:11;;;;;;;63.67;27.43;;;4.90;99.90;;;;;;5088772;28;20209;-80
2020/12/14 00:12:37;;;;;;;65.60;27.53;;;4.90;99.90;;;;;;5098632;28;20552;-80
2020/12/14 00:15:05;;;;;;;62.30;26.80;;;4.90;99.90;;;;;;5108743;28;20212;-80
2020/12/14 00:17:33;;;;;;;67.90;27.90;;;4.90;99.90;;;;;;5108732;28;20296;-79
2020/12/14 00:20:00;;;;;;;64.63;27.30;;;4.90;99.90;;;;;;5108887;28;20299;-79
2020/12/14 00:22:30;;;;;;;63.63;26.50;;;4.90;99.90;;;;;;5085406;28;20572;-79
2020/12/14 00:24:57;;;;;;;61.07;27.67;;;4.90;99.90;;;;;;5088451;28;20672;-79
2020/12/14 00:27:23;;;;;;;62.50;27.07;;;4.90;99.90;;;;;;5088505;28;20293;-80
2020/12/14 00:29:49;;;;;;;68.77;27.33;;;4.90;99.90;;;;;;5088123;28;20677;-80
2020/12/14 00:32:16;;;;;;;62.83;26.97;;;4.90;99.90;;;;;;5088282;28;20216;-80
2020/12/14 00:34:42;;;;;;;59.50;25.43;;;4.90;99.90;;;;;;5088424;28;20289;-79
2020/12/14 00:37:10;;;;;;;57.23;25.50;;;4.90;99.90;;;;;;5089089;28;20234;-84
2020/12/14 00:39:36;;;;;;;60.33;26.13;;;5.00;99.90;;;;;;5089643;28;21069;-83
2020/12/14 00:42:03;;;;;;;57.43;26.07;;;5.00;99.90;;;;;;5088326;28;20199;-82
2020/12/14 00:44:30;;;;;;;61.80;27.90;;;5.00;99.90;;;;;;5088356;28;20325;-81
2020/12/14 00:46:56;;;;;;;58.10;25.97;;;5.00;99.90;;;;;;5088214;28;20216;-80
2020/12/14 00:49:23;;;;;;;63.47;26.70;;;5.00;99.90;;;;;;5088100;28;20566;-79
2020/12/14 00:51:49;;;;;;;61.43;27.13;;;5.00;99.90;;;;;;5088316;28;20206;-79
2020/12/14 00:54:17;;;;;;;57.37;26.33;;;5.00;99.90;;;;;;5087722;28;20238;-78
2020/12/14 00:56:43;;;;;;;62.57;27.17;;;5.00;99.90;;;;;;5087804;28;20240;-78
2020/12/14 00:59:09;;;;;;;57.43;25.77;;;5.00;99.90;;;;;;5088060;28;20312;-78
2020/12/14 01:01:36;;;;;;;60.87;26.70;;;5.00;99.90;;;;;;5087981;28;20210;-78
2020/12/14 01:04:02;;;;;;;59.30;25.83;;;5.00;99.90;;;;;;5087836;28;20221;-79
2020/12/14 01:06:29;;;;;;;62.47;27.30;;;5.00;99.90;;;;;;5087938;28;20321;-79
2020/12/14 01:08:55;;;;;;;60.43;27.10;;;5.00;99.90;;;;;;5088086;28;20293;-79
2020/12/14 01:11:25;;;;;;;63.87;27.13;;;5.00;99.90;;;;;;5089088;28;20211;-79
2020/12/14 01:13:52;;;;;;;68.83;28.03;;;5.00;99.90;;;;;;5091852;28;20221;-79
2020/12/14 01:16:19;;;;;;;62.07;26.90;;;5.00;99.90;;;;;;5091647;28;20240;-79
2020/12/14 01:18:45;;;;;;;56.50;26.17;;;5.00;99.90;;;;;;5091799;28;20297;-78
2020/12/14 01:21:12;;;;;;;56.00;25.93;;;5.00;99.90;;;;;;5091540;28;20540;-78
2020/12/14 01:23:38;;;;;;;56.40;25.60;;;5.00;99.90;;;;;;5091548;28;20309;-79
2020/12/14 01:26:05;;;;;;;54.03;25.33;;;5.00;99.90;;;;;;5091608;28;20206;-79
2020/12/14 01:28:32;;;;;;;57.77;24.87;;;5.00;99.90;;;;;;5091720;28;20572;-79
2020/12/14 01:30:58;;;;;;;55.60;23.60;;;5.00;99.90;;;;;;5091412;28;20221;-77
2020/12/14 01:33:24;;;;;;;53.73;24.63;;;5.00;99.90;;;;;;5091242;28;20625;-77
2020/12/14 01:35:51;;;;;;;50.97;23.67;;;5.00;99.90;;;;;;5091052;28;20229;-78
2020/12/14 01:38:17;;;;;;;53.40;24.13;;;5.00;99.90;;;;;;5091597;28;20211;-83
2020/12/14 01:40:43;;;;;;;61.30;24.90;;;5.00;99.90;;;;;;5092459;28;20203;-83
2020/12/14 01:43:10;;;;;;;51.73;23.57;;;5.00;99.90;;;;;;5091769;28;20320;-84
2020/12/14 01:45:37;;;;;;;56.47;24.70;;;5.00;99.90;;;;;;5092235;28;20305;-85
2020/12/14 01:48:07;;;;;;;53.70;24.90;;;5.00;99.90;;;;;;5092105;28;20653;-85
2020/12/14 01:50:34;;;;;;;61.93;25.90;;;5.00;99.90;;;;;;5092144;28;20213;-84
2020/12/14 01:53:01;;;;;;;65.07;24.43;;;5.00;99.90;;;;;;5091741;28;20721;-84
2020/12/14 01:55:32;;;;;;;64.57;24.00;;;5.00;99.90;;;;;;5091495;28;20234;-84
2020/12/14 01:57:58;;;;;;;62.00;25.43;;;5.00;99.90;;;;;;5092297;28;20236;-85
2020/12/14 02:00:24;;;;;;;60.50;25.63;;;5.00;99.90;;;;;;5091647;28;20673;-84
2020/12/14 02:02:52;;;;;;;66.83;25.80;;;4.90;99.90;;;;;;5090614;28;20201;-79
2020/12/14 02:05:18;;;;;;;55.17;24.30;;;4.90;99.90;;;;;;5090575;28;20313;-80
2020/12/14 02:07:44;;;;;;;60.87;24.80;;;5.00;99.90;;;;;;5090776;28;20289;-77
2020/12/14 02:10:11;;;;;;;58.47;25.67;;;5.00;99.90;;;;;;5090521;28;20199;-78
2020/12/14 02:12:37;;;;;;;57.13;24.67;;;4.90;99.90;;;;;;5090069;28;20207;-78
2020/12/14 02:15:04;;;;;;;67.13;24.27;;;5.00;99.90;;;;;;5090288;28;20210;-78
2020/12/14 02:17:31;;;;;;;57.50;23.77;;;5.00;99.90;;;;;;5090009;28;20679;-78
2020/12/14 02:19:58;;;;;;;52.43;23.50;;;4.90;99.90;;;;;;5090676;28;20571;-78
2020/12/14 02:22:26;;;;;;;51.40;23.63;;;4.90;99.90;;;;;;5090256;28;20293;-78
2020/12/14 02:24:54;;;;;;;54.53;25.27;;;4.90;99.90;;;;;;5089973;28;21024;-78
2020/12/14 02:27:20;;;;;;;59.13;23.17;;;4.90;99.90;;;;;;5090412;28;20210;-78
2020/12/14 02:29:48;;;;;;;86.93;24.97;;;5.00;99.90;;;;;;5102719;28;20294;-78
2020/12/14 02:32:15;;;;;;;58.73;24.13;;;5.00;99.90;;;;;;5110458;28;20209;-78
2020/12/14 02:34:43;;;;;;;49.20;23.00;;;5.00;99.90;;;;;;5110068;28;20301;-78
2020/12/14 02:37:10;;;;;;;55.07;23.00;;;5.00;99.90;;;;;;5110028;28;20602;-80
2020/12/14 02:39:37;;;;;;;47.77;22.17;;;5.00;99.90;;;;;;5110369;28;20210;-81
2020/12/14 02:42:10;;;;;;;56.07;22.53;;;5.00;99.90;;;;;;5110328;28;20229;-81
2020/12/14 02:44:36;;;;;;;58.60;24.00;;;5.00;99.90;;;;;;5110181;28;20205;-80
2020/12/14 02:47:03;;;;;;;52.13;22.67;;;5.00;99.90;;;;;;5110295;28;20657;-80
2020/12/14 02:49:30;;;;;;;54.50;22.87;;;5.00;99.90;;;;;;5108941;28;20668;-81
2020/12/14 02:51:57;;;;;;;53.00;21.90;;;5.00;99.90;;;;;;5110110;28;20202;-80
2020/12/14 02:54:23;;;;;;;51.57;22.40;;;5.00;99.90;;;;;;5109663;28;20238;-80
2020/12/14 02:56:50;;;;;;;50.30;23.40;;;5.00;99.90;;;;;;5109977;27;20287;-80
2020/12/14 02:59:19;;;;;;;61.50;24.73;;;5.00;99.90;;;;;;5110022;28;20206;-80
2020/12/14 03:01:45;;;;;;;45.87;22.63;;;5.00;99.90;;;;;;5110137;28;20630;-81
2020/12/14 03:04:11;;;;;;;48.67;22.80;;;5.00;99.90;;;;;;5109868;28;20618;-80
2020/12/14 03:06:38;;;;;;;48.60;23.53;;;5.00;99.90;;;;;;5109787;28;20206;-80
2020/12/14 03:09:04;;;;;;;54.07;23.23;;;5.00;99.90;;;;;;5109933;28;20289;-81
2020/12/14 03:11:31;;;;;;;50.50;23.03;;;5.10;99.90;;;;;;5109948;28;20545;-81
2020/12/14 03:13:57;;;;;;;45.80;22.10;;;5.10;99.90;;;;;;5109603;28;20206;-81
2020/12/14 03:16:26;;;;;;;54.47;22.77;;;5.00;99.90;;;;;;5109851;28;20626;-81
2020/12/14 03:18:52;;;;;;;45.90;22.90;;;5.10;99.90;;;;;;5109245;28;20672;-80
2020/12/14 03:21:19;;;;;;;48.73;24.00;;;5.10;99.90;;;;;;5109503;28;20223;-81
2020/12/14 03:23:45;;;;;;;48.87;22.40;;;5.10;99.90;;;;;;5109277;28;20304;-80
2020/12/14 03:26:15;;;;;;;43.60;22.30;;;5.10;99.90;;;;;;5109033;28;20205;-80
2020/12/14 03:28:41;;;;;;;50.47;22.80;;;5.10;99.90;;;;;;5109237;28;20225;-80
2020/12/14 03:31:08;;;;;;;45.70;22.83;;;5.10;99.90;;;;;;5109505;28;20202;-80
2020/12/14 03:33:35;;;;;;;53.13;22.93;;;5.10;99.90;;;;;;5109267;28;20695;-81
2020/12/14 03:36:02;;;;;;;43.50;22.27;;;5.10;99.90;;;;;;5108945;28;20233;-81
2020/12/14 03:38:29;;;;;;;54.70;23.23;;;5.00;99.90;;;;;;5108922;28;20202;-81
2020/12/14 03:40:55;;;;;;;45.47;23.50;;;5.00;99.90;;;;;;5109115;28;20285;-81
2020/12/14 03:43:22;;;;;;;42.77;22.83;;;5.10;99.90;;;;;;5109011;28;20306;-81
2020/12/14 03:45:49;;;;;;;44.57;21.93;;;5.10;99.90;;;;;;5109312;28;20316;-82
2020/12/14 03:48:16;;;;;;;44.33;22.13;;;5.10;99.90;;;;;;5109379;28;20206;-81
2020/12/14 03:50:46;;;;;;;51.10;24.00;;;5.10;99.90;;;;;;5108573;28;20558;-81
2020/12/14 03:53:12;;;;;;;45.60;23.07;;;5.10;99.90;;;;;;5109214;28;20230;-82
2020/12/14 03:55:40;;;;;;;40.63;22.13;;;5.10;99.90;;;;;;5109111;28;20591;-81
2020/12/14 03:58:06;;;;;;;42.97;22.80;;;5.10;99.90;;;;;;5109353;28;20598;-79
2020/12/14 04:00:33;;;;;;;41.73;21.83;;;5.10;99.90;;;;;;5108451;28;20198;-79
2020/12/14 04:03:01;;;;;;;40.50;22.43;;;5.10;99.90;;;;;;5109125;28;20210;-79
2020/12/14 04:05:28;;;;;;;40.97;21.93;;;5.10;99.90;;;;;;5108821;28;20212;-79
2020/12/14 04:07:56;;;;;;;40.37;21.30;;;5.10;99.90;;;;;;5109133;28;20232;-79
2020/12/14 04:10:22;;;;;;;36.97;20.90;;;5.10;99.90;;;;;;5108905;28;20281;-79
2020/12/14 04:12:49;;;;;;;39.20;22.40;;;5.10;99.90;;;;;;5109188;28;20568;-79
2020/12/14 04:15:16;;;;;;;37.43;20.40;;;5.10;99.90;;;;;;5108973;27;20213;-79
2020/12/14 04:17:42;;;;;;;43.03;21.80;;;5.10;99.90;;;;;;5108951;28;20332;-79
2020/12/14 04:20:08;;;;;;;33.47;19.83;;;5.00;99.90;;;;;;5108835;28;20629;-79
2020/12/14 04:22:35;;;;;;;32.93;19.37;;;5.00;99.90;;;;;;5108485;28;20692;-79
2020/12/14 04:25:03;;;;;;;35.13;20.70;;;5.00;99.90;;;;;;5108858;28;20735;-79
2020/12/14 04:27:29;;;;;;;31.07;19.37;;;5.00;99.90;;;;;;5108730;28;20297;-79
2020/12/14 04:29:55;;;;;;;29.33;18.53;;;5.00;99.90;;;;;;5108819;28;20201;-80
2020/12/14 04:32:22;;;;;;;31.47;19.97;;;5.00;99.90;;;;;;5108912;28;20206;-79
2020/12/14 04:34:48;;;;;;;31.10;18.97;;;5.00;99.90;;;;;;5108419;28;20326;-79
2020/12/14 04:37:15;;;;;;;29.93;18.50;;;5.00;99.90;;;;;;5108379;28;20232;-79
2020/12/14 04:39:42;;;;;;;31.70;20.13;;;5.00;99.90;;;;;;5108608;28;20208;-78
2020/12/14 04:42:09;;;;;;;28.23;18.03;;;5.00;99.90;;;;;;5091408;28;20726;-78
2020/12/14 04:44:37;;;;;;;32.27;19.97;;;5.00;99.90;;;;;;5087841;28;20685;-78
2020/12/14 04:47:04;;;;;;;32.87;19.63;;;5.00;99.90;;;;;;5090197;28;20684;-78
2020/12/14 04:49:33;;;;;;;28.03;19.40;;;5.00;99.90;;;;;;5091668;28;20209;-78
2020/12/14 04:52:01;;;;;;;29.57;18.30;;;5.00;99.90;;;;;;5091858;28;20208;-78
2020/12/14 04:54:28;;;;;;;29.57;18.00;;;5.00;99.90;;;;;;5091890;28;20238;-78
2020/12/14 04:56:55;;;;;;;28.63;17.97;;;5.00;99.90;;;;;;5091345;28;20227;-78
2020/12/14 04:59:24;;;;;;;26.40;18.30;;;4.90;99.90;;;;;;5091835;28;20195;-78
2020/12/14 05:01:51;;;;;;;27.70;18.37;;;5.00;99.90;;;;;;5092244;28;20213;-78
2020/12/14 05:04:17;;;;;;;27.77;18.57;;;5.00;99.90;;;;;;5091980;28;20319;-78
2020/12/14 05:06:49;;;;;;;28.90;18.63;;;4.90;99.90;;;;;;5091498;28;20259;-79
2020/12/14 05:09:17;;;;;;;26.73;17.00;;;4.90;99.90;;;;;;5091595;28;20201;-78
2020/12/14 05:11:43;;;;;;;25.23;17.77;;;4.90;99.90;;;;;;5091411;28;20203;-78
2020/12/14 05:14:14;;;;;;;25.70;16.93;;;4.90;99.90;;;;;;5091573;28;20289;-78
2020/12/14 05:16:41;;;;;;;25.43;17.13;;;4.90;99.90;;;;;;5092176;28;20317;-83
2020/12/14 05:19:17;;;;;;;24.30;16.43;;;4.90;99.90;;;;;;5092525;28;20202;-84
2020/12/14 05:21:48;;;;;;;24.27;17.20;;;4.80;99.90;;;;;;5092053;28;20210;-83
2020/12/14 05:24:25;;;;;;;22.20;16.03;;;4.90;99.90;;;;;;5092393;28;20628;-83
2020/12/14 05:26:52;;;;;;;28.27;18.07;;;4.80;99.90;;;;;;5092062;28;20722;-83
2020/12/14 05:29:21;;;;;;;22.67;15.73;;;4.80;99.90;;;;;;5091872;28;20209;-84
2020/12/14 05:32:03;;;;;;;21.37;16.00;;;4.80;99.90;;;;;;5091746;28;20207;-83
2020/12/14 05:34:34;;;;;;;24.63;17.37;;;4.80;99.90;;;;;;5092054;28;20318;-84
2020/12/14 05:37:04;;;;;;;21.20;15.60;;;4.80;99.90;;;;;;5091875;28;20313;-83
2020/12/14 05:39:30;;;;;;;23.23;16.33;;;4.80;99.90;;;;;;5105691;28;20674;-84
2020/12/14 05:42:15;;;;;;;22.37;15.77;;;4.80;99.90;;;;;;5112079;28;20270;-83
2020/12/14 05:44:42;;;;;;;25.37;16.40;;;4.80;99.90;;;;;;5111894;28;20206;-83
2020/12/14 05:47:29;;;;;;;22.93;16.30;;;4.80;99.90;;;;;;5110845;28;20278;-83
2020/12/14 05:49:57;;;;;;;21.97;16.33;;;4.70;99.90;;;;;;5091314;28;20195;-81
2020/12/14 05:52:31;;;;;;;21.40;15.90;;;4.70;99.90;;;;;;5090900;28;20297;-83
2020/12/14 05:54:57;;;;;;;20.50;15.07;;;4.80;99.90;;;;;;5090426;28;20242;-78
2020/12/14 05:57:29;;;;;;;20.10;15.03;;;4.70;99.90;;;;;;5090270;28;20276;-82
2020/12/14 06:00:01;;;;;;;19.27;14.77;;;4.70;99.90;;;;;;5090766;28;20220;-80
2020/12/14 06:02:28;;;;;;;20.93;15.47;;;4.70;99.90;;;;;;5091188;28;20213;-82
2020/12/14 06:04:57;;;;;;;20.07;14.73;;;4.70;99.90;;;;;;5090551;28;20217;-82
2020/12/14 06:07:27;;;;;;;21.77;15.27;;;4.70;99.90;;;;;;5090989;28;20203;-82
2020/12/14 06:10:04;;;;;;;19.30;14.30;;;4.70;99.90;;;;;;5090800;28;20289;-82
2020/12/14 06:12:32;;;;;;;20.20;14.90;;;4.70;99.90;;;;;;5091326;28;20286;-82
2020/12/14 06:15:00;;;;;;;18.43;14.63;;;4.70;99.90;;;;;;5091153;28;20206;-82
2020/12/14 06:17:28;;;;;;;19.30;14.73;;;4.70;99.90;;;;;;5090401;28;20321;-81
2020/12/14 06:20:05;;;;;;;18.53;14.40;;;4.70;99.90;;;;;;5090909;28;20210;-82
2020/12/14 06:22:33;;;;;;;23.37;15.07;;;4.70;99.90;;;;;;5090628;28;20205;-77
2020/12/14 06:25:02;;;;;;;19.03;14.87;;;4.70;99.90;;;;;;5090389;28;20314;-77
2020/12/14 06:27:28;;;;;;;20.53;14.87;;;4.70;99.90;;;;;;5090523;28;20298;-77
2020/12/14 06:29:55;;;;;;;20.93;14.40;;;4.60;99.90;;;;;;5090376;28;20217;-78
2020/12/14 06:32:37;;;;;;;19.57;14.27;;;4.60;99.90;;;;;;5090296;28;20224;-78
2020/12/14 06:35:05;;;;;;;19.03;14.43;;;4.60;99.90;;;;;;5090647;28;20216;-81
2020/12/14 06:37:47;;;;;;;17.03;13.57;;;4.60;99.90;;;;;;5089910;28;20231;-80
2020/12/14 06:40:18;;;;;;;17.67;13.73;;;4.60;99.90;;;;;;5088523;28;20640;-81
2020/12/14 06:42:44;;;;;;;21.17;14.57;;;4.60;99.90;;;;;;5089946;28;20233;-81
2020/12/14 06:45:15;;;;;;;19.07;14.10;;;4.60;99.90;;;;;;5090091;28;20913;-82
2020/12/14 06:47:51;;;;;;;18.73;14.37;;;4.60;99.90;;;;;;5105898;28;20696;-80
2020/12/14 06:50:33;;;;;;;20.93;14.97;;;4.60;99.90;;;;;;5110728;28;20283;-80
2020/12/14 06:53:03;;;;;;;19.63;14.33;;;4.60;99.90;;;;;;5110132;28;20287;-80
2020/12/14 06:55:45;;;;;;;17.80;14.00;;;4.60;99.90;;;;;;5110138;28;20298;-80
2020/12/14 06:58:29;;;;;;;18.47;13.97;;;4.60;99.90;;;;;;5110000;28;20198;-80
2020/12/14 07:00:56;;;;;;;17.70;14.00;;;4.60;99.90;;;;;;5109965;28;20581;-80
2020/12/14 07:03:36;;;;;;;17.93;14.07;;;4.60;99.90;;;;;;5110296;27;20209;-80
2020/12/14 07:06:03;;;;;;;18.20;14.33;;;4.60;99.90;;;;;;5109773;28;20211;-80
2020/12/14 07:08:36;;;;;;;17.90;14.50;;;4.60;99.90;;;;;;5109512;28;20309;-80
2020/12/14 07:11:17;;;;;;;20.87;14.97;;;4.60;99.90;;;;;;5109691;28;20206;-80
2020/12/14 07:13:45;;;;;;;16.73;13.43;;;4.60;99.90;;;;;;5103533;28;20204;-82
2020/12/14 07:16:12;;;;;;;17.57;13.13;;;4.60;99.90;;;;;;5102032;27;20313;-84
2020/12/14 07:18:41;;;;;;;18.30;13.50;;;4.60;99.90;;;;;;5098366;28;20251;-84
2020/12/14 07:21:10;;;;;;;16.40;13.37;;;4.60;99.90;;;;;;5104395;28;20238;-83
2020/12/14 07:23:39;;;;;;;16.50;13.10;;;4.60;99.90;;;;;;5093038;28;20580;-82
2020/12/14 07:26:06;;;;;;;17.93;13.27;;;4.60;99.90;;;;;;5091106;28;20213;-82
2020/12/14 07:28:37;;;;;;;15.53;12.93;;;4.60;99.90;;;;;;5099600;28;20197;-80
2020/12/14 07:31:11;;;;;;;15.17;12.07;;;4.60;99.90;;;;;;5094324;28;20203;-79
2020/12/14 07:33:39;;;;;;;15.37;12.20;;;4.60;99.90;;;;;;5095739;28;20200;-79
2020/12/14 07:36:09;;;;;;;16.20;12.83;;;4.60;99.90;;;;;;5101188;28;20228;-81
2020/12/14 07:38:45;;;;;;;16.43;12.70;;;4.60;99.90;;;;;;5100373;28;20573;-82
2020/12/14 07:41:11;;;;;;;13.90;11.83;;;4.60;99.90;;;;;;5099958;28;20528;-83
2020/12/14 07:43:45;;;;;;;14.50;11.80;;;4.60;99.90;;;;;;5104359;28;20214;-80
2020/12/14 07:46:31;;;;;;;13.00;11.33;;;4.60;99.90;;;;;;5099075;28;20304;-79
2020/12/14 07:49:06;;;;;;;15.30;12.13;;;4.60;99.90;;;;;;5093530;28;20358;-79
2020/12/14 07:51:34;;;;;;;12.63;11.03;;;4.60;99.90;;;;;;5084630;28;20190;-79
2020/12/14 07:54:09;;;;;;;15.60;11.40;;;4.60;99.90;;;;;;5084250;28;20258;-79
2020/12/14 07:56:44;;;;;;;16.10;11.60;;;4.60;99.90;;;;;;5084715;28;20591;-79
2020/12/14 07:59:17;;;;;;;13.17;11.23;;;4.60;99.90;;;;;;5084832;28;20239;-80
2020/12/14 08:01:46;;;;;;;14.87;11.77;;;4.60;99.90;;;;;;5084418;28;20207;-79
2020/12/14 08:04:19;;;;;;;14.70;12.30;;;4.60;99.90;;;;;;5084870;28;20241;-80
2020/12/14 08:06:48;;;;;;;14.93;11.47;;;4.70;99.90;;;;;;5083791;28;20205;-79
2020/12/14 08:09:18;;;;;;;13.67;11.07;;;4.70;99.90;;;;;;5084370;28;20217;-79
2020/12/14 08:11:46;;;;;;;15.13;11.87;;;4.70;99.90;;;;;;5084219;28;20324;-79
2020/12/14 08:14:13;;;;;;;11.90;10.70;;;4.70;99.90;;;;;;5084364;28;20661;-79
2020/12/14 08:16:42;;;;;;;12.93;11.23;;;4.70;99.90;;;;;;5084068;28;20325;-79
2020/12/14 08:19:16;;;;;;;11.70;10.20;;;4.70;99.90;;;;;;5084448;28;20242;-79
2020/12/14 08:21:42;;;;;;;12.40;11.10;;;4.80;99.90;;;;;;5083456;28;20650;-79
2020/12/14 08:24:10;;;;;;;11.60;9.90;;;4.80;99.90;;;;;;5084517;28;20238;-79
2020/12/14 08:26:39;;;;;;;12.10;10.63;;;4.80;99.90;;;;;;5083808;28;20635;-79
2020/12/14 08:29:05;;;;;;;12.10;10.33;;;4.90;99.90;;;;;;5083791;28;20738;-79
2020/12/14 08:31:32;;;;;;;12.13;10.40;;;4.90;99.90;;;;;;5084044;28;20528;-79
2020/12/14 08:33:58;;;;;;;12.50;10.30;;;4.90;99.90;;;;;;5083954;28;20205;-78
2020/12/14 08:36:26;;;;;;;12.23;10.80;;;5.00;99.90;;;;;;5084007;28;20877;-78
2020/12/14 08:38:53;;;;;;;11.43;10.23;;;5.00;99.90;;;;;;5083870;28;20209;-78
2020/12/14 08:41:22;;;;;;;11.57;10.47;;;5.00;99.90;;;;;;5083840;28;20289;-79
2020/12/14 08:43:48;;;;;;;28.13;25.33;;;4.90;99.90;;;;;;5083471;28;20217;-77
2020/12/14 08:46:18;;;;;;;36.87;33.20;;;5.10;99.90;;;;;;5083821;28;20549;-76
2020/12/14 08:48:48;;;;;;;11.10;10.00;;;5.10;99.90;;;;;;5090130;28;20218;-79
2020/12/14 08:51:18;;;;;;;10.73;9.50;;;5.10;99.90;;;;;;5087418;28;20609;-79
2020/12/14 08:53:47;;;;;;;11.07;9.93;;;5.20;99.90;;;;;;5083837;28;20327;-80
2020/12/14 08:56:17;;;;;;;11.13;9.83;;;5.20;99.90;;;;;;5086567;28;20282;-79
2020/12/14 08:58:48;;;;;;;9.70;8.70;;;5.20;99.90;;;;;;5101581;28;20201;-78
2020/12/14 09:01:14;;;;;;;9.40;8.50;;;5.20;99.90;;;;;;5084241;28;20694;-80
2020/12/14 09:03:46;;;;;;;9.63;8.63;;;5.20;99.90;;;;;;5083865;28;20214;-78
2020/12/14 09:06:20;;;;;;;10.60;9.30;;;5.20;99.90;;;;;;5083103;28;20211;-80
2020/12/14 09:09:00;;;;;;;10.37;9.37;;;5.20;99.90;;;;;;5083882;28;20198;-79
2020/12/14 09:11:28;;;;;;;10.60;9.50;;;5.20;99.90;;;;;;5083282;28;20194;-78
2020/12/14 09:13:56;;;;;;;10.97;9.37;;;5.30;99.90;;;;;;5083936;28;20310;-78
2020/12/14 09:16:23;;;;;;;10.80;9.70;;;5.30;99.90;;;;;;5083875;28;20226;-78
2020/12/14 09:18:50;;;;;;;11.73;9.30;;;5.30;99.90;;;;;;5083953;28;20531;-79
2020/12/14 09:21:17;;;;;;;10.83;9.73;;;5.30;99.90;;;;;;5084235;28;20301;-79
2020/12/14 09:23:44;;;;;;;10.37;9.37;;;5.30;99.90;;;;;;5084150;28;20271;-79
2020/12/14 09:26:11;;;;;;;13.50;9.13;;;5.30;99.90;;;;;;5083721;28;20775;-79
2020/12/14 09:28:38;;;;;;;11.60;9.50;;;5.30;99.90;;;;;;5083727;28;20203;-78
2020/12/14 09:31:05;;;;;;;9.63;8.67;;;5.30;99.90;;;;;;5084113;28;21005;-80
2020/12/14 09:33:31;;;;;;;10.60;8.63;;;5.30;99.90;;;;;;5086875;28;20689;-79
2020/12/14 09:35:58;;;;;;;9.23;8.33;;;5.40;99.90;;;;;;5087439;28;20213;-78
2020/12/14 09:38:24;;;;;;;9.87;8.20;;;5.40;99.90;;;;;;5087169;28;20323;-79
2020/12/14 09:40:52;;;;;;;9.97;8.33;;;5.50;99.90;;;;;;5087419;28;20606;-79
2020/12/14 09:43:20;;;;;;;8.73;7.93;;;5.50;99.90;;;;;;5092212;28;20222;-79
2020/12/14 09:45:51;;;;;;;9.57;8.60;;;5.50;99.90;;;;;;5106256;28;20301;-79
2020/12/14 09:48:17;;;;;;;10.03;8.77;;;5.50;99.90;;;;;;5107495;28;20206;-78
2020/12/14 09:50:44;;;;;;;9.77;8.77;;;5.50;99.90;;;;;;5107125;28;20297;-79
2020/12/14 09:53:10;;;;;;;10.00;8.73;;;5.50;99.90;;;;;;5107135;28;20730;-79
2020/12/14 09:55:42;;;;;;;8.50;7.67;;;5.50;99.90;;;;;;5101052;28;20282;-78
2020/12/14 09:58:08;;;;;;;11.27;8.30;;;5.60;99.90;;;;;;5086893;28;20308;-78
2020/12/14 10:00:36;;;;;;;9.07;8.17;;;5.60;99.90;;;;;;5086920;28;20211;-78
2020/12/14 10:03:03;;;;;;;9.23;8.20;;;5.60;99.90;;;;;;5087007;28;20794;-79
2020/12/14 10:05:30;;;;;;;8.70;7.80;;;5.60;99.90;;;;;;5086982;28;20242;-80
2020/12/14 10:07:56;;;;;;;8.63;7.80;;;5.60;99.90;;;;;;5086715;28;20212;-79
2020/12/14 10:10:22;;;;;;;9.40;8.50;;;5.70;99.90;;;;;;5086817;28;20210;-79
2020/12/14 10:12:49;;;;;;;9.97;8.37;;;5.70;99.90;;;;;;5086743;28;20218;-79
2020/12/14 10:15:15;;;;;;;9.07;8.10;;;5.70;99.90;;;;;;5086754;28;20573;-79
2020/12/14 10:17:42;;;;;;;9.53;8.53;;;5.70;99.90;;;;;;5086345;28;20312;-79
2020/12/14 10:20:09;;;;;;;9.17;7.70;;;5.70;99.90;;;;;;5086854;28;20570;-79
2020/12/14 10:22:37;;;;;;;7.97;7.17;;;5.80;99.90;;;;;;5086762;28;20206;-79
2020/12/14 10:25:03;;;;;;;8.40;7.60;;;5.80;99.90;;;;;;5086231;28;20207;-79
2020/12/14 10:27:30;;;;;;;8.63;7.70;;;5.80;99.90;;;;;;5086358;28;20753;-79
2020/12/14 10:29:56;;;;;;;8.80;7.87;;;5.80;99.90;;;;;;5086272;28;20213;-79
2020/12/14 10:32:22;;;;;;;8.73;7.47;;;5.90;99.90;;;;;;5088302;28;20206;-78
2020/12/14 10:34:50;;;;;;;10.53;8.97;;;5.90;99.90;;;;;;5085955;28;20213;-78
2020/12/14 10:37:16;;;;;;;9.33;8.33;;;5.90;99.90;;;;;;5085939;28;20291;-79
2020/12/14 10:39:43;;;;;;;8.73;7.93;;;5.90;99.90;;;;;;5085903;28;20289;-78
2020/12/14 10:42:09;;;;;;;10.10;8.03;;;5.90;99.90;;;;;;5086162;28;20368;-79
2020/12/14 10:44:36;;;;;;;10.50;8.57;;;6.00;99.90;;;;;;5085615;28;20206;-80
2020/12/14 10:47:04;;;;;;;10.57;8.60;;;6.00;99.90;;;;;;5085969;28;20751;-80
2020/12/14 10:49:30;;;;;;;10.33;7.97;;;6.10;99.90;;;;;;5086066;28;20206;-80
2020/12/14 10:51:58;;;;;;;8.47;7.67;;;6.10;99.90;;;;;;5085863;28;20686;-80
2020/12/14 10:54:24;;;;;;;9.53;8.00;;;6.10;99.90;;;;;;5085801;28;20400;-79
2020/12/14 10:56:51;;;;;;;9.43;8.50;;;6.20;99.90;;;;;;5085387;28;20262;-80
2020/12/14 10:59:17;;;;;;;11.87;9.27;;;6.20;99.90;;;;;;5085508;28;20211;-79
2020/12/14 11:01:43;;;;;;;8.73;7.83;;;6.20;99.90;;;;;;5085502;28;20211;-79
2020/12/14 11:04:10;;;;;;;12.30;9.57;;;6.30;99.90;;;;;;5085847;28;20210;-80
2020/12/14 11:06:36;;;;;;;8.53;7.57;;;6.40;99.90;;;;;;5086023;28;20234;-80
2020/12/14 11:09:03;;;;;;;9.23;6.97;;;6.50;99.90;;;;;;5086284;28;20235;-81
2020/12/14 11:11:32;;;;;;;7.70;6.90;;;6.60;99.90;;;;;;5085569;28;20571;-80
2020/12/14 11:13:59;;;;;;;8.50;7.43;;;6.80;99.90;;;;;;5085118;28;20673;-79
2020/12/14 11:16:26;;;;;;;8.73;6.90;;;6.90;99.90;;;;;;5085112;28;20217;-80
2020/12/14 11:18:52;;;;;;;7.63;6.83;;;7.00;99.90;;;;;;5085002;28;20207;-80
2020/12/14 11:21:19;;;;;;;6.57;5.97;;;7.00;99.90;;;;;;5085769;28;20207;-80
2020/12/14 11:23:45;;;;;;;6.43;5.83;;;7.10;99.90;;;;;;5085273;28;20722;-80
2020/12/14 11:26:12;;;;;;;7.13;6.43;;;7.20;99.90;;;;;;5085349;28;20312;-80
2020/12/14 11:28:39;;;;;;;6.97;6.33;;;7.20;99.90;;;;;;5084917;28;20215;-79
2020/12/14 11:31:07;;;;;;;6.10;5.60;;;7.30;99.90;;;;;;5086033;28;20210;-79
2020/12/14 11:33:34;;;;;;;6.17;5.57;;;7.40;99.90;;;;;;5085343;28;20207;-79
2020/12/14 11:36:00;;;;;;;7.10;6.10;;;7.50;99.90;;;;;;5085565;28;20215;-79
2020/12/14 11:38:27;;;;;;;6.37;5.77;;;7.60;99.90;;;;;;5084963;28;20234;-80
2020/12/14 11:40:53;;;;;;;6.73;6.07;;;7.60;99.90;;;;;;5084598;28;20206;-79
2020/12/14 11:43:20;;;;;;;6.17;5.57;;;7.70;99.90;;;;;;5105081;28;20229;-79
2020/12/14 11:45:47;;;;;;;6.60;6.00;;;7.70;99.90;;;;;;5104849;28;21250;-79
2020/12/14 11:48:13;;;;;;;6.83;6.23;;;7.60;99.90;;;;;;5105429;28;20210;-79
2020/12/14 11:50:40;;;;;;;7.40;6.17;;;7.50;99.90;;;;;;5104717;28;20206;-79
2020/12/14 11:53:08;;;;;;;6.47;5.80;;;7.50;99.90;;;;;;5101020;28;20794;-79
2020/12/14 11:55:35;;;;;;;6.83;6.13;;;7.40;99.90;;;;;;5095338;28;20222;-79
2020/12/14 11:58:01;;;;;;;6.87;5.83;;;7.40;99.90;;;;;;5094401;28;20727;-79
2020/12/14 12:00:28;;;;;;;6.30;5.70;;;7.40;99.90;;;;;;5093369;28;20202;-80
2020/12/14 12:02:55;;;;;;;6.47;5.53;;;7.30;99.90;;;;;;5087338;28;20213;-79
2020/12/14 12:05:21;;;;;;;6.87;6.17;;;7.30;99.90;;;;;;5092937;28;20205;-79
2020/12/14 12:07:47;;;;;;;6.10;5.50;;;7.30;99.90;;;;;;5098212;28;20194;-79
2020/12/14 12:10:14;;;;;;;6.20;5.70;;;7.30;99.90;;;;;;5101521;28;20228;-79
2020/12/14 12:12:40;;;;;;;7.03;6.23;;;7.30;99.90;;;;;;5102188;28;20202;-80
2020/12/14 12:15:07;;;;;;;6.97;6.27;;;7.30;99.90;;;;;;5106584;28;20752;-79
2020/12/14 12:17:34;;;;;;;6.43;5.83;;;7.30;99.90;;;;;;5097686;28;20306;-80
2020/12/14 12:20:00;;;;;;;5.90;5.40;;;7.30;99.90;;;;;;5093507;28;20282;-79
2020/12/14 12:22:27;;;;;;;7.10;6.40;;;7.40;99.90;;;;;;5098400;28;20224;-80
2020/12/14 12:24:53;;;;;;;6.13;5.57;;;7.50;99.90;;;;;;5094903;28;20668;-79
2020/12/14 12:27:20;;;;;;;6.50;5.90;;;7.50;99.90;;;;;;5098133;28;20726;-79
2020/12/14 12:29:46;;;;;;;6.50;5.90;;;7.50;99.90;;;;;;5095531;28;20195;-80
2020/12/14 12:32:13;;;;;;;6.37;5.77;;;7.50;99.90;;;;;;5096350;28;20668;-79
2020/12/14 12:34:40;;;;;;;6.30;5.70;;;7.40;99.90;;;;;;5093519;28;20666;-80
2020/12/14 12:37:06;;;;;;;6.20;5.60;;;7.40;99.90;;;;;;5086974;28;20302;-80
2020/12/14 12:39:33;;;;;;;7.03;5.63;;;7.40;99.90;;;;;;5087194;28;20197;-80
2020/12/14 12:41:59;;;;;;;8.67;5.70;;;7.40;99.90;;;;;;5086667;28;20275;-81
2020/12/14 12:44:27;;;;;;;6.50;5.83;;;7.40;99.90;;;;;;5086770;28;20286;-81
2020/12/14 12:46:53;;;;;;;6.90;6.07;;;7.40;99.90;;;;;;5086499;28;20289;-80